Map

Track Data

SID SEASON NUMBER BASIN SUBBASIN NAME ISO_TIME NATURE LAT LON WMO_WIND WMO_PRES WMO_AGENCY TRACK_TYPE DIST2LAND LANDFALL IFLAG USA_AGENCY USA_ATCF_ID USA_LAT USA_LON USA_RECORD USA_STATUS USA_WIND USA_PRES USA_SSHS USA_R34_NE USA_R34_SE USA_R34_SW USA_R34_NW USA_R50_NE USA_R50_SE USA_R50_SW USA_R50_NW USA_R64_NE USA_R64_SE USA_R64_SW USA_R64_NW USA_POCI USA_ROCI USA_RMW USA_EYE TOKYO_LAT TOKYO_LON TOKYO_GRADE TOKYO_WIND TOKYO_PRES TOKYO_R50_DIR TOKYO_R50_LONG TOKYO_R50_SHORT TOKYO_R30_DIR TOKYO_R30_LONG TOKYO_R30_SHORT TOKYO_LAND CMA_LAT CMA_LON CMA_CAT CMA_WIND CMA_PRES HKO_LAT HKO_LON HKO_CAT HKO_WIND HKO_PRES NEWDELHI_LAT NEWDELHI_LON NEWDELHI_GRADE NEWDELHI_WIND NEWDELHI_PRES NEWDELHI_CI NEWDELHI_DP NEWDELHI_POCI REUNION_LAT REUNION_LON REUNION_TYPE REUNION_WIND REUNION_PRES REUNION_TNUM REUNION_CI REUNION_RMW REUNION_R34_NE REUNION_R34_SE REUNION_R34_SW REUNION_R34_NW REUNION_R50_NE REUNION_R50_SE REUNION_R50_SW REUNION_R50_NW REUNION_R64_NE REUNION_R64_SE REUNION_R64_SW REUNION_R64_NW BOM_LAT BOM_LON BOM_TYPE BOM_WIND BOM_PRES BOM_TNUM BOM_CI BOM_RMW BOM_R34_NE BOM_R34_SE BOM_R34_SW BOM_R34_NW BOM_R50_NE BOM_R50_SE BOM_R50_SW BOM_R50_NW BOM_R64_NE BOM_R64_SE BOM_R64_SW BOM_R64_NW BOM_ROCI BOM_POCI BOM_EYE BOM_POS_METHOD BOM_PRES_METHOD NADI_LAT NADI_LON NADI_CAT NADI_WIND NADI_PRES WELLINGTON_LAT WELLINGTON_LON WELLINGTON_WIND WELLINGTON_PRES DS824_LAT DS824_LON DS824_STAGE DS824_WIND DS824_PRES TD9636_LAT TD9636_LON TD9636_STAGE TD9636_WIND TD9636_PRES TD9635_LAT TD9635_LON TD9635_WIND TD9635_PRES TD9635_ROCI NEUMANN_LAT NEUMANN_LON NEUMANN_CLASS NEUMANN_WIND NEUMANN_PRES MLC_LAT MLC_LON MLC_CLASS MLC_WIND MLC_PRES USA_GUST BOM_GUST BOM_GUST_PER REUNION_GUST REUNION_GUST_PER USA_SEAHGT USA_SEARAD_NE USA_SEARAD_SE USA_SEARAD_SW USA_SEARAD_NW STORM_SPEED STORM_DIR
1936338N27333 1936 68 NA NA NOT_NAMED 1936-12-02 12:00:00 ET 27.0000 -27.0000 40 hurdat_atl main 1012 1010 O_____________ hurdat_atl AL171936 27.0000 -27.0000 EX 40 -4 11 337
1936338N27333 1936 68 NA NA NOT_NAMED 1936-12-02 15:00:00 ET 27.5176 -27.2495 main 1024 1024 P_____________ AL171936 27.5176 -27.2495 EX 40 -4 11 336
1936338N27333 1936 68 NA NA NOT_NAMED 1936-12-02 18:00:00 ET 28.0000 -27.5000 40 hurdat_atl main 1048 1047 O_____________ hurdat_atl AL171936 28.0000 -27.5000 EX 40 -4 10 334
1936338N27333 1936 68 NA NA NOT_NAMED 1936-12-02 21:00:00 ET 28.4224 -27.7502 main 1074 1074 P_____________ AL171936 28.4224 -27.7502 EX 40 -4 9 331
1936338N27333 1936 68 NA NA NOT_NAMED 1936-12-03 00:00:00 ET 28.8000 -28.0000 40 hurdat_atl main 1093 1093 O_____________ hurdat_atl AL171936 28.8000 -28.0000 EX 40 -4 9 330
1936338N27333 1936 68 NA NA NOT_NAMED 1936-12-03 03:00:00 ET 29.1724 -28.2501 main 1123 1123 P_____________ AL171936 29.1724 -28.2501 EX 40 -4 8 328
1936338N27333 1936 68 NA NA NOT_NAMED 1936-12-03 06:00:00 ET 29.5000 -28.5000 40 hurdat_atl main 1144 1144 O_____________ hurdat_atl AL171936 29.5000 -28.5000 EX 40 -4 7 324
1936338N27333 1936 68 NA NA NOT_NAMED 1936-12-03 09:00:00 ET 29.7725 -28.7576 main 1176 1176 P_____________ AL171936 29.7725 -28.7576 EX 40 -4 7 319
1936338N27333 1936 68 NA NA NOT_NAMED 1936-12-03 12:00:00 ET 30.0000 -29.0000 40 hurdat_atl main 1197 1197 O_____________ hurdat_atl AL171936 30.0000 -29.0000 EX 40 -4 6 318
1936338N27333 1936 68 NA NA NOT_NAMED 1936-12-03 15:00:00 ET 30.2150 -29.2151 main 1219 1219 P_____________ AL171936 30.2150 -29.2151 EX 40 -4 5 319
1936338N27333 1936 68 NA NA NOT_NAMED 1936-12-03 18:00:00 ET 30.4000 -29.4000 40 hurdat_atl main 1241 1241 O_____________ hurdat_atl AL171936 30.4000 -29.4000 EX 40 -4 5 321
1936338N27333 1936 68 NA NA NOT_NAMED 1936-12-03 21:00:00 ET 30.5724 -29.5501 main 1263 1263 P_____________ AL171936 30.5724 -29.5501 EX 40 -4 4 319
1936338N27333 1936 68 NA NA NOT_NAMED 1936-12-04 00:00:00 ET 30.7000 -29.7000 40 hurdat_atl main 1274 1274 O_____________ hurdat_atl AL171936 30.7000 -29.7000 EX 40 -4 3 302
1936338N27333 1936 68 NA NA NOT_NAMED 1936-12-04 03:00:00 ET 30.7575 -29.8926 main 1295 1295 P_____________ AL171936 30.7575 -29.8926 EX 40 -4 4 286
1936338N27333 1936 68 NA NA NOT_NAMED 1936-12-04 06:00:00 ET 30.8000 -30.1000 40 hurdat_atl main 1313 1313 O_____________ hurdat_atl AL171936 30.8000 -30.1000 EX 40 -4 4 291
1936338N27333 1936 68 NA NA NOT_NAMED 1936-12-04 09:00:00 ET 30.8849 -30.2851 main 1334 1334 P_____________ AL171936 30.8849 -30.2851 EX 40 -4 4 300
1936338N27333 1936 68 NA NA NOT_NAMED 1936-12-04 12:00:00 ET 31.0000 -30.5000 40 hurdat_atl main 1355 1355 O_____________ hurdat_atl AL171936 31.0000 -30.5000 EX 40 -4 5 301
1936338N27333 1936 68 NA NA NOT_NAMED 1936-12-04 15:00:00 ET 31.1348 -30.7627 main 1384 1384 P_____________ AL171936 31.1348 -30.7627 EX 40 -4 6 300
1936338N27333 1936 68 NA NA NOT_NAMED 1936-12-04 18:00:00 ET 31.3000 -31.1000 40 hurdat_atl main 1416 1416 O_____________ hurdat_atl AL171936 31.3000 -31.1000 EX 40 -4 7 299
1936338N27333 1936 68 NA NA NOT_NAMED 1936-12-04 21:00:00 ET 31.4849 -31.5127 main 1458 1458 P_____________ AL171936 31.4849 -31.5127 EX 40 -4 9 298
1936338N27333 1936 68 NA NA NOT_NAMED 1936-12-05 00:00:00 TS 31.7000 -32.0000 40 hurdat_atl main 1508 1508 O_____________ hurdat_atl AL171936 31.7000 -32.0000 TS 40 0 10 298
1936338N27333 1936 68 NA NA NOT_NAMED 1936-12-05 03:00:00 TS 31.9500 -32.5424 main 1561 1561 P_____________ AL171936 31.9500 -32.5424 TS 40 0 11 298
1936338N27333 1936 68 NA NA NOT_NAMED 1936-12-05 06:00:00 TS 32.2000 -33.1000 40 hurdat_atl main 1620 1620 O_____________ hurdat_atl AL171936 32.2000 -33.1000 TS 40 0 10 297
1936338N27333 1936 68 NA NA NOT_NAMED 1936-12-05 09:00:00 TS 32.4073 -33.6153 main 1671 1671 P_____________ AL171936 32.4073 -33.6153 TS 42 0 9 295
1936338N27333 1936 68 NA NA NOT_NAMED 1936-12-05 12:00:00 TS 32.6000 -34.1000 45 hurdat_atl main 1721 1721 O_____________ hurdat_atl AL171936 32.6000 -34.1000 TS 45 0 9 296
1936338N27333 1936 68 NA NA NOT_NAMED 1936-12-05 15:00:00 TS 32.8074 -34.5725 main 1771 1771 P_____________ AL171936 32.8074 -34.5725 TS 45 0 9 298
1936338N27333 1936 68 NA NA NOT_NAMED 1936-12-05 18:00:00 TS 33.0000 -35.0000 45 hurdat_atl main 1812 1812 O_____________ hurdat_atl AL171936 33.0000 -35.0000 TS 45 0 8 297
1936338N27333 1936 68 NA NA NOT_NAMED 1936-12-05 21:00:00 TS 33.1574 -35.3877 main 1853 1853 P_____________ AL171936 33.1574 -35.3877 TS 47 0 7 297
1936338N27333 1936 68 NA NA NOT_NAMED 1936-12-06 00:00:00 TS 33.3000 -35.7000 50 hurdat_atl main 1883 1883 O_____________ hurdat_atl AL171936 33.3000 -35.7000 TS 50 0 5 303
1936338N27333 1936 68 NA NA NOT_NAMED 1936-12-06 03:00:00 TS 33.4499 -35.9301 main 1904 1904 P_____________ AL171936 33.4499 -35.9301 TS 50 0 4 312
1936338N27333 1936 68 NA NA NOT_NAMED 1936-12-06 06:00:00 TS 33.6000 -36.1000 50 hurdat_atl main 1926 1926 O_____________ hurdat_atl AL171936 33.6000 -36.1000 TS 50 0 4 322
1936338N27333 1936 68 NA NA NOT_NAMED 1936-12-06 09:00:00 TS 33.7798 -36.2349 main 1940 1940 P_____________ AL171936 33.7798 -36.2349 TS 52 0 4 320
1936338N27333 1936 68 NA NA NOT_NAMED 1936-12-06 12:00:00 TS 33.9000 -36.4000 55 hurdat_atl main 1961 1961 O_____________ hurdat_atl AL171936 33.9000 -36.4000 TS 55 0 4 291
1936338N27333 1936 68 NA NA NOT_NAMED 1936-12-06 15:00:00 TS 33.9098 -36.6472 main 1979 1966 P_____________ AL171936 33.9098 -36.6472 TS 55 0 5 259
1936338N27333 1936 68 NA NA NOT_NAMED 1936-12-06 18:00:00 TS 33.8000 -37.0000 55 hurdat_atl main 1969 1955 O_____________ hurdat_atl AL171936 33.8000 -37.0000 TS 55 0 7 246
1936338N27333 1936 68 NA NA NOT_NAMED 1936-12-06 21:00:00 TS 33.6243 -37.4163 main 1964 1953 P_____________ AL171936 33.6243 -37.4163 TS 55 0 10 239
1936338N27333 1936 68 NA NA NOT_NAMED 1936-12-07 00:00:00 TS 33.3000 -38.0000 55 hurdat_atl main 1957 1952 O_____________ hurdat_atl AL171936 33.3000 -38.0000 TS 55 0 14 234
1936338N27333 1936 68 NA NA NOT_NAMED 1936-12-07 03:00:00 TS 32.8017 -38.7524 main 1960 1960 P_____________ AL171936 32.8017 -38.7524 TS 55 0 18 232
1936338N27333 1936 68 NA NA NOT_NAMED 1936-12-07 06:00:00 TS 32.2000 -39.7000 55 hurdat_atl main 1970 1965 O_____________ hurdat_atl AL171936 32.2000 -39.7000 TS 55 0 21 236
1936338N27333 1936 68 NA NA NOT_NAMED 1936-12-07 09:00:00 TS 31.6156 -40.8274 main 1976 1971 P_____________ AL171936 31.6156 -40.8274 TS 52 0 23 239
1936338N27333 1936 68 NA NA NOT_NAMED 1936-12-07 12:00:00 ET 31.0000 -42.0000 50 hurdat_atl main 1983 1979 O_____________ hurdat_atl AL171936 31.0000 -42.0000 EX 50 -4 23 236
1936338N27333 1936 68 NA NA NOT_NAMED 1936-12-07 15:00:00 ET 30.3565 -43.0362 main 2005 2005 P_____________ AL171936 30.3565 -43.0362 EX 50 -4 22 233
1936338N27333 1936 68 NA NA NOT_NAMED 1936-12-07 18:00:00 ET 29.7000 -44.0000 50 hurdat_atl main 2042 2038 O_____________ hurdat_atl AL171936 29.7000 -44.0000 EX 50 -4 21 231
1936338N27333 1936 68 NA NA NOT_NAMED 1936-12-07 21:00:00 ET 29.0492 -44.9212 main 2087 2084 P_____________ AL171936 29.0492 -44.9212 EX 50 -4 20 230
1936338N27333 1936 68 NA NA NOT_NAMED 1936-12-08 00:00:00 ET 28.4000 -45.8000 50 hurdat_atl main 2126 2126 O_____________ hurdat_atl AL171936 28.4000 -45.8000 EX 50 -4 20 230
1936338N27333 1936 68 NA NA NOT_NAMED 1936-12-08 03:00:00 ET 27.7346 -46.6719 main 2180 2091 P_____________ AL171936 27.7346 -46.6719 EX 50 -4 20 229
1936338N27333 1936 68 NA NA NOT_NAMED 1936-12-08 06:00:00 ET 27.1000 -47.5000 50 hurdat_atl main 2091 1991 O_____________ hurdat_atl AL171936 27.1000 -47.5000 EX 50 -4 19 230
1936338N27333 1936 68 NA NA NOT_NAMED 1936-12-08 09:00:00 ET 26.5124 -48.3020 main 1991 1905 P_____________ AL171936 26.5124 -48.3020 EX 50 -4 17 231
1936338N27333 1936 68 NA NA NOT_NAMED 1936-12-08 12:00:00 ET 26.0000 -49.0000 50 hurdat_atl main 1905 1842 O_____________ hurdat_atl AL171936 26.0000 -49.0000 EX 50 -4 15 231
1936338N27333 1936 68 NA NA NOT_NAMED 1936-12-08 15:00:00 ET 25.5772 -49.5742 main 1832 1778 P_____________ AL171936 25.5772 -49.5742 EX 50 -4 12 228
1936338N27333 1936 68 NA NA NOT_NAMED 1936-12-08 18:00:00 ET 25.2000 -50.0000 50 hurdat_atl main 1778 1734 O_____________ hurdat_atl AL171936 25.2000 -50.0000 EX 50 -4 10 220
1936338N27333 1936 68 NA NA NOT_NAMED 1936-12-08 21:00:00 ET 24.7923 -50.3021 main 1734 1699 P_____________ AL171936 24.7923 -50.3021 EX 47 -4 9 210
1936338N27333 1936 68 NA NA NOT_NAMED 1936-12-09 00:00:00 ET 24.4000 -50.5000 45 hurdat_atl main 1699 1668 O_____________ hurdat_atl AL171936 24.4000 -50.5000 EX 45 -4 8 204
1936338N27333 1936 68 NA NA NOT_NAMED 1936-12-09 03:00:00 ET 24.0424 -50.6723 main 1665 1644 P_____________ AL171936 24.0424 -50.6723 EX 45 -4 8 201
1936338N27333 1936 68 NA NA NOT_NAMED 1936-12-09 06:00:00 ET 23.7000 -50.8000 45 hurdat_atl main 1644 1624 O_____________ hurdat_atl AL171936 23.7000 -50.8000 EX 45 -4 7 197
1936338N27333 1936 68 NA NA NOT_NAMED 1936-12-09 09:00:00 ET 23.3500 -50.8998 main 1621 1602 P_____________ AL171936 23.3500 -50.8998 EX 42 -4 7 195
1936338N27333 1936 68 NA NA NOT_NAMED 1936-12-09 12:00:00 ET 23.0000 -51.0000 40 hurdat_atl main 1602 1583 O_____________ hurdat_atl AL171936 23.0000 -51.0000 EX 40 -4 7 197
1936338N27333 1936 68 NA NA NOT_NAMED 1936-12-09 15:00:00 ET 22.6500 -51.1349 main 1580 1552 P_____________ AL171936 22.6500 -51.1349 EX 40 -4 8 202
1936338N27333 1936 68 NA NA NOT_NAMED 1936-12-09 18:00:00 ET 22.3000 -51.3000 40 hurdat_atl main 1552 1524 O_____________ hurdat_atl AL171936 22.3000 -51.3000 EX 40 -4 8 205
1936338N27333 1936 68 NA NA NOT_NAMED 1936-12-09 21:00:00 ET 21.9500 -51.4925 main 1524 1495 P_____________ AL171936 21.9500 -51.4925 EX 40 -4 8 208
1936338N27333 1936 68 NA NA NOT_NAMED 1936-12-10 00:00:00 ET 21.6000 -51.7000 40 hurdat_atl main 1495 1466 O_____________ hurdat_atl AL171936 21.6000 -51.7000 EX 40 -4 8 208
1936338N27333 1936 68 NA NA NOT_NAMED 1936-12-10 03:00:00 ET 21.2275 -51.9000 main 1466 1440 P_____________ AL171936 21.2275 -51.9000 EX 40 -4 8 208
1936338N27333 1936 68 NA NA NOT_NAMED 1936-12-10 06:00:00 ET 20.9000 -52.1000 40 hurdat_atl main 1440 1415 O_____________ hurdat_atl AL171936 20.9000 -52.1000 EX 40 -4 7 213
1936338N27333 1936 68 NA NA NOT_NAMED 1936-12-10 09:00:00 ET 20.6325 -52.3075 main 1415 1393 P_____________ AL171936 20.6325 -52.3075 EX 37 -4 5 223
1936338N27333 1936 68 NA NA NOT_NAMED 1936-12-10 12:00:00 ET 20.5000 -52.5000 35 hurdat_atl main 1393 1382 O_____________ hurdat_atl AL171936 20.5000 -52.5000 EX 35 -4 3 256
1936338N27333 1936 68 NA NA NOT_NAMED 1936-12-10 15:00:00 ET 20.5475 -52.6574 main 1372 1363 P_____________ AL171936 20.5475 -52.6574 EX 35 -4 3 305
1936338N27333 1936 68 NA NA NOT_NAMED 1936-12-10 18:00:00 ET 20.7000 -52.8000 35 hurdat_atl main 1365 1356 O_____________ hurdat_atl AL171936 20.7000 -52.8000 EX 35 -4 4 318
1936338N27333 1936 68 NA NA NOT_NAMED 1936-12-10 21:00:00 ET 20.8425 -52.9425 main 1356 1340 P_____________ AL171936 20.8425 -52.9425 EX 35 -4 4 317
1936338N27333 1936 68 NA NA NOT_NAMED 1936-12-11 00:00:00 ET 21.0000 -53.1000 35 hurdat_atl main 1340 1321 O_____________ hurdat_atl AL171936 21.0000 -53.1000 EX 35 -4 4 313
1936338N27333 1936 68 NA NA NOT_NAMED 1936-12-11 03:00:00 ET 21.1425 -53.2851 main 1321 1305 P_____________ AL171936 21.1425 -53.2851 EX 35 -4 5 309
1936338N27333 1936 68 NA NA NOT_NAMED 1936-12-11 06:00:00 ET 21.3000 -53.5000 35 hurdat_atl main 1305 1290 O_____________ hurdat_atl AL171936 21.3000 -53.5000 EX 35 -4 5 312
1936338N27333 1936 68 NA NA NOT_NAMED 1936-12-11 09:00:00 ET 21.4998 -53.7051 main 1290 1266 P_____________ AL171936 21.4998 -53.7051 EX 35 -4 6 311
1936338N27333 1936 68 NA NA NOT_NAMED 1936-12-11 12:00:00 ET 21.7000 -54.0000 35 hurdat_atl main 1266 1229 O_____________ hurdat_atl AL171936 21.7000 -54.0000 EX 35 -4 8 297
1936338N27333 1936 68 NA NA NOT_NAMED 1936-12-11 15:00:00 ET 21.8576 -54.4625 main 1222 1176 P_____________ AL171936 21.8576 -54.4625 EX 35 -4 10 288
1936338N27333 1936 68 NA NA NOT_NAMED 1936-12-11 18:00:00 ET 22.0000 -55.0000 35 hurdat_atl main 1176 1131 O_____________ hurdat_atl AL171936 22.0000 -55.0000 EX 35 -4 10 287
1936338N27333 1936 68 NA NA NOT_NAMED 1936-12-11 21:00:00 ET 22.1498 -55.5001 main 1131 1091 P_____________ AL171936 22.1498 -55.5001 EX 35 -4 10 288
1936338N27333 1936 68 NA NA NOT_NAMED 1936-12-12 00:00:00 ET 22.3000 -56.0000 35 hurdat_atl main 1091 1048 O_____________ hurdat_atl AL171936 22.3000 -56.0000 EX 35 -4 10 288
1936338N27333 1936 68 NA NA NOT_NAMED 1936-12-12 03:00:00 ET 22.4423 -56.5002 main 1048 1010 P_____________ AL171936 22.4423 -56.5002 EX 35 -4 10 288
1936338N27333 1936 68 NA NA NOT_NAMED 1936-12-12 06:00:00 ET 22.6000 -57.0000 35 hurdat_atl main 1010 975 O_____________ hurdat_atl AL171936 22.6000 -57.0000 EX 35 -4 10 290
1936338N27333 1936 68 NA NA NOT_NAMED 1936-12-12 09:00:00 ET 22.7698 -57.5003 main 975 942 P_____________ AL171936 22.7698 -57.5003 EX 35 -4 10 293
1936338N27333 1936 68 NA NA NOT_NAMED 1936-12-12 12:00:00 ET 23.0000 -58.0000 35 hurdat_atl main 942 918 O_____________ hurdat_atl AL171936 23.0000 -58.0000 EX 35 -4 11 301
1936338N27333 1936 68 NA NA NOT_NAMED 1936-12-12 15:00:00 ET 23.3198 -58.5001 main 918 905 P_____________ AL171936 23.3198 -58.5001 EX 35 -4 12 307
1936338N27333 1936 68 NA NA NOT_NAMED 1936-12-12 18:00:00 ET 23.7000 -59.0000 35 hurdat_atl main 905 896 O_____________ hurdat_atl AL171936 23.7000 -59.0000 EX 35 -4 12 310
1936338N27333 1936 68 NA NA NOT_NAMED 1936-12-12 21:00:00 ET 24.0848 -59.5003 main 897 890 P_____________ AL171936 24.0848 -59.5003 EX 35 -4 12 311
1936338N27333 1936 68 NA NA NOT_NAMED 1936-12-13 00:00:00 ET 24.5000 -60.0000 35 hurdat_atl main 894 888 O_____________ hurdat_atl AL171936 24.5000 -60.0000 EX 35 -4 13 314
1936338N27333 1936 68 NA NA NOT_NAMED 1936-12-13 03:00:00 ET 24.9498 -60.5002 main 897 897 P_____________ AL171936 24.9498 -60.5002 EX 35 -4 13 315
1936338N27333 1936 68 NA NA NOT_NAMED 1936-12-13 06:00:00 ET 25.4000 -61.0000 35 hurdat_atl main 914 909 O_____________ hurdat_atl AL171936 25.4000 -61.0000 EX 35 -4 13 313
1936338N27333 1936 68 NA NA NOT_NAMED 1936-12-13 09:00:00 ET 25.8150 -61.5152 main 928 928 P_____________ AL171936 25.8150 -61.5152 EX 35 -4 12 312
1936338N27333 1936 68 NA NA NOT_NAMED 1936-12-13 12:00:00 ET 26.2000 -62.0000 35 hurdat_atl main 947 943 O_____________ hurdat_atl AL171936 26.2000 -62.0000 EX 35 -4 11 312
1936338N27333 1936 68 NA NA NOT_NAMED 1936-12-13 15:00:00 ET 26.5574 -62.4303 main 973 970 P_____________ AL171936 26.5574 -62.4303 EX 35 -4 10 314
1936338N27333 1936 68 NA NA NOT_NAMED 1936-12-13 18:00:00 ET 26.9000 -62.8000 35 hurdat_atl main 992 992 O_____________ hurdat_atl AL171936 26.9000 -62.8000 EX 35 -4 9 318
1936338N27333 1936 68 NA NA NOT_NAMED 1936-12-13 21:00:00 ET 27.2499 -63.1376 main 1016 1016 P_____________ AL171936 27.2499 -63.1376 EX 35 -4 9 323
1936338N27333 1936 68 NA NA NOT_NAMED 1936-12-14 00:00:00 ET 27.6000 -63.4000 35 hurdat_atl main 1052 1052 O_____________ hurdat_atl AL171936 27.6000 -63.4000 EX 35 -4 8 329
1936338N27333 1936 68 NA NA NOT_NAMED 1936-12-14 03:00:00 ET 27.9499 -63.6099 main 1081 1081 P_____________ AL171936 27.9499 -63.6099 EX 35 -4 8 339
1936338N27333 1936 68 NA NA NOT_NAMED 1936-12-14 06:00:00 ET 28.3000 -63.7000 35 hurdat_atl main 1123 1123 O_____________ hurdat_atl AL171936 28.3000 -63.7000 EX 35 -4 7 355
1936338N27333 1936 68 NA NA NOT_NAMED 1936-12-14 09:00:00 ET 28.6348 -63.6748 main 1156 1156 P_____________ AL171936 28.6348 -63.6748 EX 35 -4 7 14
1936338N27333 1936 68 NA NA NOT_NAMED 1936-12-14 12:00:00 ET 29.0000 -63.5000 35 hurdat_atl main 1203 1203 O_____________ hurdat_atl AL171936 29.0000 -63.5000 EX 35 -4 9 26
1936338N27333 1936 68 NA NA NOT_NAMED 1936-12-14 15:00:00 ET 29.4197 -63.2318 main 1253 1253 P_____________ AL171936 29.4197 -63.2318 EX 37 -4 11 34
1936338N27333 1936 68 NA NA NOT_NAMED 1936-12-14 18:00:00 ET 29.9000 -62.8000 40 hurdat_atl main 1315 1315 O_____________ hurdat_atl AL171936 29.9000 -62.8000 EX 40 -4 13 42
1936338N27333 1936 68 NA NA NOT_NAMED 1936-12-14 21:00:00 ET 30.4200 -62.2096 main 1373 1368 P_____________ AL171936 30.4200 -62.2096 EX 40 -4 16 46
1936338N27333 1936 68 NA NA NOT_NAMED 1936-12-15 00:00:00 ET 31.0000 -61.5000 40 hurdat_atl main 1401 1382 O_____________ hurdat_atl AL171936 31.0000 -61.5000 EX 40 -4 17 46
1936338N27333 1936 68 NA NA NOT_NAMED 1936-12-15 03:00:00 ET 31.6041 -60.8003 main 1382 1329 P_____________ AL171936 31.6041 -60.8003 EX 42 -4 18 45
1936338N27333 1936 68 NA NA NOT_NAMED 1936-12-15 06:00:00 ET 32.3000 -60.0000 45 hurdat_atl main 1329 1283 O_____________ hurdat_atl AL171936 32.3000 -60.0000 EX 45 -4 21 44
1936338N27333 1936 68 NA NA NOT_NAMED 1936-12-15 09:00:00 ET 33.0731 -59.1077 main 1276 1235 P_____________ AL171936 33.0731 -59.1077 EX 47 -4 24 45
1936338N27333 1936 68 NA NA NOT_NAMED 1936-12-15 12:00:00 ET 34.0000 -58.0000 50 hurdat_atl main 1230 1201 O_____________ hurdat_atl AL171936 34.0000 -58.0000 EX 50 -4 28 47
1936338N27333 1936 68 NA NA NOT_NAMED 1936-12-15 15:00:00 ET 34.9982 -56.6388 main 1197 1120 P_____________ AL171936 34.9982 -56.6388 EX 50 -4 34 47
1936338N27333 1936 68 NA NA NOT_NAMED 1936-12-15 18:00:00 ET 36.3000 -55.0000 50 hurdat_atl main 1114 967 O_____________ hurdat_atl AL171936 36.3000 -55.0000 EX 50 -4 42 43
1936338N27333 1936 68 NA NA NOT_NAMED 1936-12-15 21:00:00 ET 38.0329 -53.1043 main 956 763 P_____________ AL171936 38.0329 -53.1043 EX 50 -4 49 40
1936338N27333 1936 68 NA NA NOT_NAMED 1936-12-16 00:00:00 ET 40.0000 -51.0000 50 hurdat_atl main 754 O_____________ hurdat_atl AL171936 40.0000 -51.0000 EX 50 -4 51 39

About IBTrACS Database

This database is a web-friendly format of International Best Track Archive for Climate Stewardship (IBTrACS), a global best track data archive curated by NOAA dating back to 1842.

Updated: 2021-12-08